Aviation Digital Data Service (ADDS)

Output produced by METARs form (0336 UTC 31 July 2016)
found at http://aviationweather.gov/adds/metars/
 
KMSS 302321Z 3100/3124 07004KT P6SM FEW250 
     FM311400 07009KT P6SM SCT150 
     FM311900 07010KT P6SM BKN120